Anabel, Missouri
Current Conditions -  °F | °C
As of 1:55 PM on Saturday 25 Oct 2014 (Local Time) from KIRK Reporting Station
Clear Clear  
Wind Chill: 76°   Ceiling: Unl
Heat Index: 76°   Visibility: 10mi
Dew Point: 50°   Wind: 6mph
Humidity: 40%   Direction: 360°N
Pressure: 30.05"   Gusts: NA
Location:  39.75°N, 92.34°W
Report Text: KIRK 251855Z AUTO 36005KT 10SM CLR 24/10 A3005 RMK AO2 SLP176 T02440100
Loading
Personal Weather Stations






























Interactive Weather Map
Tropical Storm Tracking
New forecast layout! Learn more

10-Day Weather Forecast

Advertisements
Track Severe Weather on mobile